createdAt,value
2023-03-30T00:00:48.209Z,68.86
2023-03-30T00:04:53.069Z,68.88
2023-03-30T00:08:58.205Z,68.30
2023-03-30T00:13:03.041Z,69.07
2023-03-30T00:17:07.280Z,69.45
2023-03-30T00:21:11.515Z,69.58
2023-03-30T00:25:16.352Z,69.51
2023-03-30T00:29:21.365Z,69.03
2023-03-30T00:33:37.236Z,68.86
2023-03-30T00:37:49.936Z,68.94
2023-03-30T00:41:52.953Z,69.08
2023-03-30T00:45:59.179Z,68.26
2023-03-30T00:50:02.390Z,68.74
2023-03-30T00:54:12.589Z,68.99
2023-03-30T00:58:17.950Z,69.13
2023-03-30T01:02:23.887Z,69.40
2023-03-30T01:06:30.290Z,69.35
2023-03-30T01:10:33.617Z,69.20
2023-03-30T01:14:37.279Z,69.08
2023-03-30T01:18:56.035Z,69.17
2023-03-30T01:23:19.680Z,69.10
2023-03-30T01:27:51.447Z,69.39
2023-03-30T01:32:17.116Z,69.08
2023-03-30T01:37:01.698Z,68.86
2023-03-30T01:41:14.445Z,68.88
2023-03-30T01:45:29.534Z,69.06
2023-03-30T01:49:41.221Z,69.10
2023-03-30T01:53:51.409Z,69.43
2023-03-30T01:58:01.867Z,69.09
2023-03-30T02:02:07.638Z,69.27
2023-03-30T02:06:18.693Z,69.33
2023-03-30T02:10:25.323Z,69.69
2023-03-30T02:14:34.671Z,69.61
2023-03-30T02:18:39.126Z,69.27
2023-03-30T02:22:42.773Z,69.89
2023-03-30T02:26:47.381Z,69.56
2023-03-30T02:30:51.720Z,70.02
2023-03-30T02:35:19.150Z,69.73
2023-03-30T02:39:29.887Z,70.01
2023-03-30T02:43:43.216Z,69.96
2023-03-30T02:47:57.761Z,69.93
2023-03-30T02:52:10.669Z,70.54
2023-03-30T02:56:19.385Z,70.19
2023-03-30T03:00:27.111Z,70.05
2023-03-30T03:04:34.225Z,70.13
2023-03-30T03:08:41.437Z,70.08
2023-03-30T03:12:46.874Z,69.96
2023-03-30T03:16:50.412Z,70.46
2023-03-30T03:20:54.666Z,70.76
2023-03-30T03:24:57.925Z,70.37
2023-03-30T03:29:00.884Z,70.65
2023-03-30T03:33:04.515Z,70.59
2023-03-30T03:37:09.136Z,70.35
2023-03-30T03:41:12.961Z,70.26
2023-03-30T03:45:15.905Z,70.16
2023-03-30T03:49:18.956Z,70.25
2023-03-30T03:53:24.179Z,69.99
2023-03-30T03:57:28.079Z,70.28
2023-03-30T04:01:31.607Z,70.29
2023-03-30T04:05:35.337Z,70.06
2023-03-30T04:09:39.782Z,70.00
2023-03-30T04:13:43.121Z,70.20
2023-03-30T04:17:49.959Z,70.37
2023-03-30T04:21:53.375Z,70.06
2023-03-30T04:25:58.188Z,70.23
2023-03-30T04:30:02.926Z,70.54
2023-03-30T04:34:06.055Z,70.35
2023-03-30T04:38:09.294Z,70.27
2023-03-30T04:42:15.646Z,70.23
2023-03-30T04:46:19.838Z,70.37
2023-03-30T04:50:22.891Z,70.26
2023-03-30T04:54:26.149Z,70.16
2023-03-30T04:58:30.668Z,70.06
2023-03-30T05:02:33.893Z,70.41
2023-03-30T05:06:36.923Z,70.21
2023-03-30T05:10:40.088Z,70.35
2023-03-30T05:14:44.380Z,70.51
2023-03-30T05:18:49.423Z,70.54
2023-03-30T05:22:54.642Z,70.63
2023-03-30T05:26:58.573Z,70.51
2023-03-30T05:31:03.309Z,70.55
2023-03-30T05:35:07.850Z,70.89
2023-03-30T05:39:10.907Z,70.90
2023-03-30T05:43:15.717Z,70.76
2023-03-30T05:47:22.111Z,70.83
2023-03-30T05:51:26.156Z,71.42
2023-03-30T05:55:29.762Z,71.53
2023-03-30T05:59:33.700Z,71.71
2023-03-30T06:03:39.310Z,71.24
2023-03-30T06:07:42.911Z,71.22
2023-03-30T06:11:45.986Z,71.70
2023-03-30T06:15:50.028Z,71.52
2023-03-30T06:19:54.455Z,71.64
2023-03-30T06:23:57.586Z,71.26
2023-03-30T06:28:00.939Z,70.81
2023-03-30T06:32:05.220Z,70.31
2023-03-30T06:36:14.509Z,69.08
2023-03-30T06:40:18.072Z,68.22
2023-03-30T06:44:21.306Z,68.16
2023-03-30T06:48:25.698Z,67.69
2023-03-30T06:52:30.858Z,66.81
2023-03-30T06:56:34.023Z,65.79
2023-03-30T07:00:37.399Z,64.95
2023-03-30T07:04:40.852Z,64.70
2023-03-30T07:08:45.289Z,62.93
2023-03-30T07:12:48.862Z,61.52
2023-03-30T07:16:53.198Z,61.27
2023-03-30T07:21:01.672Z,61.02
2023-03-30T07:25:07.631Z,60.09
2023-03-30T07:29:10.829Z,61.43
2023-03-30T07:33:14.893Z,60.57
2023-03-30T07:37:20.427Z,61.10
2023-03-30T07:41:25.294Z,61.55
2023-03-30T07:45:29.453Z,60.93
2023-03-30T07:49:32.848Z,61.49
2023-03-30T07:53:37.754Z,61.85
2023-03-30T07:57:42.367Z,62.06
2023-03-30T08:01:45.664Z,61.76
2023-03-30T08:05:54.033Z,62.79
2023-03-30T08:09:57.586Z,61.55
2023-03-30T08:14:02.004Z,61.75
2023-03-30T08:18:08.497Z,61.80
2023-03-30T08:22:11.489Z,62.03
2023-03-30T08:26:15.178Z,61.09
2023-03-30T08:30:19.549Z,60.49
2023-03-30T08:34:22.698Z,61.55
2023-03-30T08:38:25.910Z,62.43
2023-03-30T08:43:05.316Z,63.56
2023-03-30T08:47:14.777Z,63.22
2023-03-30T08:51:25.396Z,63.83
2023-03-30T08:55:33.654Z,65.09
2023-03-30T08:59:45.050Z,65.81
2023-03-30T09:04:03.460Z,66.76
2023-03-30T09:08:13.789Z,66.82
2023-03-30T09:12:23.835Z,66.65
2023-03-30T09:16:37.116Z,66.65
2023-03-30T09:20:45.555Z,67.04
2023-03-30T09:24:52.156Z,68.54
2023-03-30T09:29:03.780Z,68.49
2023-03-30T09:33:16.047Z,67.99
2023-03-30T09:37:21.859Z,67.54
2023-03-30T09:41:48.672Z,68.21
2023-03-30T09:45:52.673Z,68.70
2023-03-30T09:50:00.700Z,67.88
2023-03-30T09:54:07.358Z,67.12
2023-03-30T09:58:19.351Z,67.06
2023-03-30T10:02:22.933Z,68.30
2023-03-30T10:06:26.306Z,67.98
2023-03-30T10:10:35.201Z,67.70
2023-03-30T10:14:38.832Z,66.94
2023-03-30T10:18:43.882Z,63.83
2023-03-30T10:22:52.877Z,63.92
2023-03-30T10:27:00.886Z,62.03
2023-03-30T10:31:07.021Z,60.47
2023-03-30T10:35:11.702Z,60.92
2023-03-30T10:39:19.375Z,59.75
2023-03-30T10:43:29.145Z,59.67
2023-03-30T10:47:52.748Z,59.73
2023-03-30T10:52:05.423Z,58.58
2023-03-30T10:56:18.385Z,59.15
2023-03-30T11:00:49.887Z,59.79
2023-03-30T11:05:03.059Z,57.52
2023-03-30T11:09:11.092Z,58.63
2023-03-30T11:13:19.419Z,58.27
2023-03-30T11:17:30.571Z,59.48
2023-03-30T11:21:39.347Z,58.89
2023-03-30T11:25:54.644Z,60.19
2023-03-30T11:30:05.448Z,59.25
2023-03-30T11:34:20.514Z,59.28
2023-03-30T11:38:30.664Z,58.49
2023-03-30T11:42:33.864Z,56.56
2023-03-30T11:46:42.642Z,57.35
2023-03-30T11:51:01.466Z,58.46
2023-03-30T11:55:28.405Z,58.19
2023-03-30T11:59:45.229Z,55.61
2023-03-30T12:03:54.894Z,57.17
2023-03-30T12:08:09.724Z,56.21
2023-03-30T12:12:16.419Z,55.66
2023-03-30T12:16:28.201Z,53.88
2023-03-30T12:20:39.513Z,53.78
2023-03-30T12:24:52.141Z,55.70
2023-03-30T12:29:38.951Z,60.58
2023-03-30T12:33:28.854Z,55.09
2023-03-30T12:37:35.348Z,54.83
2023-03-30T12:41:48.758Z,54.35
2023-03-30T12:46:05.298Z,52.30
2023-03-30T12:50:18.115Z,51.56
2023-03-30T12:54:38.448Z,53.88
2023-03-30T12:58:59.714Z,54.43
2023-03-30T13:03:28.336Z,55.44
2023-03-30T13:07:36.651Z,53.47
2023-03-30T13:11:50.423Z,54.52
2023-03-30T13:15:58.648Z,55.58
2023-03-30T13:20:29.250Z,56.66
2023-03-30T13:24:44.971Z,56.80
2023-03-30T13:29:01.368Z,57.06
2023-03-30T13:33:20.311Z,56.85
2023-03-30T13:37:29.434Z,56.24
2023-03-30T13:41:42.215Z,56.44
2023-03-30T13:45:51.684Z,56.56
2023-03-30T13:50:00.780Z,57.43
2023-03-30T13:54:09.336Z,56.49
2023-03-30T13:58:17.900Z,57.34
2023-03-30T14:02:26.142Z,58.41
2023-03-30T14:06:34.470Z,59.12
2023-03-30T14:10:38.209Z,60.80
2023-03-30T14:14:47.166Z,61.19
2023-03-30T14:18:51.202Z,62.51
2023-03-30T14:22:58.517Z,63.45
2023-03-30T14:27:07.151Z,64.35
2023-03-30T14:31:15.014Z,65.12
2023-03-30T14:35:19.752Z,66.09
2023-03-30T14:39:25.408Z,65.92
2023-03-30T14:43:32.742Z,66.37
2023-03-30T14:47:36.551Z,67.05
2023-03-30T14:51:43.166Z,67.73
2023-03-30T14:55:48.466Z,69.24
2023-03-30T14:59:54.485Z,69.91
2023-03-30T15:03:58.545Z,70.89
2023-03-30T15:08:04.572Z,70.77
2023-03-30T15:12:09.647Z,70.60
2023-03-30T15:16:16.903Z,70.42
2023-03-30T15:20:20.497Z,70.07
2023-03-30T15:24:28.220Z,69.76
2023-03-30T15:28:36.492Z,69.97
2023-03-30T15:32:41.929Z,69.52
2023-03-30T15:36:45.668Z,70.12
2023-03-30T15:40:53.154Z,69.82
2023-03-30T15:45:05.211Z,70.37
2023-03-30T15:49:08.880Z,70.67
2023-03-30T15:53:18.993Z,70.76
2023-03-30T15:57:25.420Z,70.40
2023-03-30T16:05:34.275Z,70.20
2023-03-30T16:09:37.350Z,70.64
2023-03-30T16:13:45.826Z,71.00
2023-03-30T16:17:49.022Z,70.78
2023-03-30T16:21:53.846Z,71.29
2023-03-30T16:25:58.327Z,71.10
2023-03-30T16:30:01.502Z,71.33
2023-03-30T16:34:04.410Z,70.97
2023-03-30T16:38:09.062Z,71.42
2023-03-30T16:42:12.030Z,71.09
2023-03-30T16:46:16.425Z,71.06
2023-03-30T16:50:23.174Z,70.65
2023-03-30T16:54:32.412Z,70.61
2023-03-30T16:58:36.368Z,70.50
2023-03-30T17:02:39.825Z,71.43
2023-03-30T17:06:43.155Z,71.68
2023-03-30T17:10:47.844Z,71.27
2023-03-30T17:14:50.840Z,71.04
2023-03-30T17:18:54.021Z,70.79
2023-03-30T17:22:57.090Z,70.48
2023-03-30T17:27:02.113Z,70.62
2023-03-30T17:31:09.862Z,70.51
2023-03-30T17:35:14.648Z,69.46
2023-03-30T17:39:17.638Z,69.91
2023-03-30T17:43:22.358Z,69.09
2023-03-30T17:47:25.551Z,69.25
2023-03-30T17:51:28.736Z,68.68
2023-03-30T17:55:33.783Z,68.58
2023-03-30T17:59:41.398Z,68.12
2023-03-30T18:03:44.788Z,67.77
2023-03-30T18:07:48.947Z,67.33
2023-03-30T18:11:51.855Z,67.42
2023-03-30T18:15:58.063Z,66.68
2023-03-30T18:20:01.597Z,66.66
2023-03-30T18:24:05.458Z,66.54
2023-03-30T18:28:16.995Z,66.24
2023-03-30T18:32:22.004Z,64.80
2023-03-30T18:36:25.228Z,64.51
2023-03-30T18:40:32.794Z,64.45
2023-03-30T18:44:36.921Z,63.32
2023-03-30T18:48:41.917Z,63.83
2023-03-30T18:52:45.113Z,63.69
2023-03-30T18:56:50.026Z,63.89
2023-03-30T19:00:54.484Z,63.43
2023-03-30T19:05:00.114Z,63.92
2023-03-30T19:09:02.984Z,64.27
2023-03-30T19:13:07.340Z,63.08
2023-03-30T19:17:10.326Z,63.79
2023-03-30T19:21:17.005Z,63.78
2023-03-30T19:25:21.779Z,64.54
2023-03-30T19:29:25.071Z,64.58
2023-03-30T19:37:32.858Z,64.85
2023-03-30T19:41:35.933Z,63.36
2023-03-30T19:45:39.701Z,64.31
2023-03-30T19:49:42.639Z,64.21
2023-03-30T19:53:47.790Z,64.32
2023-03-30T19:57:51.044Z,63.88
2023-03-30T20:01:54.037Z,63.98
2023-03-30T20:05:57.880Z,64.45
2023-03-30T20:10:02.669Z,64.70
2023-03-30T20:14:06.315Z,64.88
2023-03-30T20:18:09.917Z,65.01
2023-03-30T20:22:12.902Z,64.47
2023-03-30T20:26:19.737Z,64.04
2023-03-30T20:30:22.937Z,64.22
2023-03-30T20:34:27.623Z,64.53
2023-03-30T20:38:30.521Z,63.91
2023-03-30T20:42:35.042Z,66.07
2023-03-30T20:46:38.425Z,67.22
2023-03-30T20:50:43.087Z,67.13
2023-03-30T20:54:48.885Z,66.98
2023-03-30T20:58:53.396Z,68.01
2023-03-30T21:02:56.579Z,68.12
2023-03-30T21:07:00.120Z,68.39
2023-03-30T21:11:03.828Z,68.77
2023-03-30T21:15:09.955Z,68.49
2023-03-30T21:19:13.607Z,68.14
2023-03-30T21:23:16.949Z,68.37
2023-03-30T21:27:19.880Z,67.78
2023-03-30T21:31:25.275Z,68.03
2023-03-30T21:35:28.199Z,67.56
2023-03-30T21:39:31.360Z,67.84
2023-03-30T21:43:36.877Z,67.70
2023-03-30T21:47:42.084Z,67.63
2023-03-30T21:51:45.066Z,67.51
2023-03-30T21:55:48.663Z,67.70
2023-03-30T21:59:51.609Z,67.58
2023-03-30T22:03:56.975Z,68.08
2023-03-30T22:08:00.285Z,68.40
2023-03-30T22:12:04.020Z,68.77
2023-03-30T22:16:09.740Z,68.99
2023-03-30T22:20:14.811Z,69.33
2023-03-30T22:24:18.425Z,69.18
2023-03-30T22:28:22.835Z,69.92
2023-03-30T22:32:26.039Z,70.28
2023-03-30T22:36:32.431Z,70.26
2023-03-30T22:40:36.791Z,70.23
2023-03-30T22:44:39.973Z,70.32
2023-03-30T22:48:45.327Z,70.32
2023-03-30T22:52:49.811Z,70.33
2023-03-30T22:56:52.857Z,70.10
2023-03-30T23:01:01.315Z,69.42
2023-03-30T23:05:04.636Z,69.66
2023-03-30T23:09:10.060Z,69.75
2023-03-30T23:13:14.082Z,69.62
2023-03-30T23:17:17.639Z,69.64
2023-03-30T23:21:22.408Z,69.67
2023-03-30T23:25:27.090Z,69.86
2023-03-30T23:29:30.628Z,70.39
2023-03-30T23:33:33.843Z,70.36
2023-03-30T23:37:37.054Z,70.21
2023-03-30T23:41:41.883Z,70.39
2023-03-30T23:45:45.077Z,70.64
2023-03-30T23:49:48.416Z,70.71
2023-03-30T23:53:54.582Z,70.95
2023-03-30T23:57:59.776Z,71.14
